createdAt,value
2019-04-01T00:00:18.885Z,2.60
2019-04-01T00:01:18.875Z,2.30
2019-04-01T00:02:18.863Z,2.90
2019-04-01T00:03:18.854Z,2.40
2019-04-01T00:04:18.846Z,2.40
2019-04-01T00:05:18.834Z,2.50
2019-04-01T00:06:18.824Z,2.50
2019-04-01T00:07:18.816Z,2.50
2019-04-01T00:08:18.801Z,2.60
2019-04-01T00:09:18.792Z,2.60
2019-04-01T00:10:18.780Z,2.60
2019-04-01T00:11:18.771Z,2.10
2019-04-01T00:12:18.760Z,2.50
2019-04-01T00:13:18.748Z,2.20
2019-04-01T00:14:18.740Z,2.60
2019-04-01T00:15:18.730Z,2.40
2019-04-01T00:16:18.720Z,2.90
2019-04-01T00:17:18.709Z,2.40
2019-04-01T00:18:18.698Z,2.50
2019-04-01T00:19:18.689Z,2.60
2019-04-01T00:20:18.678Z,2.40
2019-04-01T00:21:18.668Z,2.50
2019-04-01T00:22:18.655Z,2.40
2019-04-01T00:23:18.647Z,2.40
2019-04-01T00:24:18.637Z,2.30
2019-04-01T00:25:18.625Z,2.40
2019-04-01T00:26:18.616Z,2.20
2019-04-01T00:27:18.605Z,2.50
2019-04-01T00:28:18.595Z,2.10
2019-04-01T00:29:18.583Z,2.30
2019-04-01T00:30:18.576Z,2.20
2019-04-01T00:31:18.564Z,2.60
2019-04-01T00:32:18.553Z,2.30
2019-04-01T00:33:18.542Z,2.50
2019-04-01T00:34:18.531Z,2.50
2019-04-01T00:35:18.527Z,2.50
2019-04-01T00:36:18.515Z,2.60
2019-04-01T00:37:18.504Z,2.60
2019-04-01T00:38:18.493Z,2.60
2019-04-01T00:39:18.479Z,2.40
2019-04-01T00:40:18.469Z,2.60
2019-04-01T00:41:18.459Z,2.60
2019-04-01T00:42:18.448Z,2.70
2019-04-01T00:43:18.436Z,2.20
2019-04-01T00:44:18.429Z,2.40
2019-04-01T00:45:18.415Z,2.30
2019-04-01T00:46:18.413Z,2.70
2019-04-01T00:47:18.398Z,2.20
2019-04-01T00:48:18.385Z,2.20
2019-04-01T00:49:18.375Z,2.40
2019-04-01T00:50:18.363Z,2.40
2019-04-01T00:51:18.353Z,2.60
2019-04-01T00:52:18.346Z,2.30
2019-04-01T00:53:18.344Z,2.40
2019-04-01T00:54:18.322Z,2.20
2019-04-01T00:55:18.311Z,2.20
2019-04-01T00:56:18.302Z,2.20
2019-04-01T00:57:18.290Z,2.30
2019-04-01T00:58:18.278Z,2.40
2019-04-01T00:59:18.268Z,2.10
2019-04-01T01:00:18.261Z,2.30
2019-04-01T01:01:18.245Z,2.20
2019-04-01T01:02:18.236Z,2.30
2019-04-01T01:03:18.228Z,2.40
2019-04-01T01:04:18.214Z,2.30
2019-04-01T01:05:18.206Z,2.30
2019-04-01T01:06:18.194Z,2.30
2019-04-01T01:07:18.184Z,2.30
2019-04-01T01:08:18.172Z,2.20
2019-04-01T01:09:18.161Z,2.20
2019-04-01T01:10:18.159Z,2.20
2019-04-01T01:11:18.140Z,2.30
2019-04-01T01:12:18.130Z,2.30
2019-04-01T01:13:18.119Z,2.40
2019-04-01T01:14:18.108Z,2.20
2019-04-01T01:15:18.100Z,2.30
2019-04-01T01:16:18.086Z,2.20
2019-04-01T01:17:18.075Z,2.20
2019-04-01T01:18:18.065Z,2.40
2019-04-01T01:19:18.056Z,2.30
2019-04-01T01:20:18.043Z,2.40
2019-04-01T01:21:18.030Z,2.50
2019-04-01T01:22:18.022Z,2.30
2019-04-01T01:23:18.010Z,2.40
2019-04-01T01:24:18.000Z,2.50
2019-04-01T01:25:17.990Z,2.20
2019-04-01T01:26:17.978Z,2.40
2019-04-01T01:27:17.967Z,2.50
2019-04-01T01:28:17.958Z,2.10
2019-04-01T01:29:17.945Z,2.30
2019-04-01T01:30:18.021Z,2.40
2019-04-01T01:31:17.924Z,2.40
2019-04-01T01:32:17.914Z,2.30
2019-04-01T01:33:17.902Z,2.40
2019-04-01T01:34:17.891Z,2.40
2019-04-01T01:35:17.881Z,2.10
2019-04-01T01:36:17.867Z,2.10
2019-04-01T01:37:17.858Z,2.10
2019-04-01T01:38:17.849Z,2.10
2019-04-01T01:39:17.835Z,2.50
2019-04-01T01:40:17.828Z,2.40
2019-04-01T01:41:17.816Z,2.30
2019-04-01T01:42:17.805Z,2.30
2019-04-01T01:43:17.793Z,2.30
2019-04-01T01:44:17.779Z,2.40
2019-04-01T01:45:17.771Z,2.40
2019-04-01T01:46:17.757Z,2.50
2019-04-01T01:47:17.747Z,2.20
2019-04-01T01:48:17.740Z,2.30
2019-04-01T01:49:17.727Z,2.40
2019-04-01T01:50:17.715Z,2.30
2019-04-01T01:51:17.704Z,2.30
2019-04-01T01:52:17.695Z,2.70
2019-04-01T01:53:17.682Z,2.30
2019-04-01T01:54:17.672Z,2.10
2019-04-01T01:55:17.659Z,2.30
2019-04-01T01:56:17.650Z,2.30
2019-04-01T01:57:17.637Z,2.40
2019-04-01T01:58:17.628Z,2.60
2019-04-01T01:59:17.616Z,2.10
2019-04-01T02:00:17.606Z,2.60
2019-04-01T02:01:17.594Z,2.70
2019-04-01T02:02:17.584Z,2.20
2019-04-01T02:03:17.572Z,2.30
2019-04-01T02:04:17.562Z,2.40
2019-04-01T02:05:17.549Z,2.50
2019-04-01T02:06:17.537Z,2.20
2019-04-01T02:07:17.530Z,2.50
2019-04-01T02:08:17.518Z,2.40
2019-04-01T02:09:17.504Z,2.20
2019-04-01T02:10:17.497Z,2.30
2019-04-01T02:11:17.488Z,2.20
2019-04-01T02:12:17.472Z,2.50
2019-04-01T02:13:20.022Z,2.20
2019-04-01T02:14:17.450Z,2.30
2019-04-01T02:15:17.438Z,2.20
2019-04-01T02:16:17.428Z,2.40
2019-04-01T02:17:17.419Z,2.70
2019-04-01T02:18:17.405Z,2.30
2019-04-01T02:19:17.394Z,2.40
2019-04-01T02:20:17.385Z,2.30
2019-04-01T02:21:17.375Z,2.50
2019-04-01T02:22:17.363Z,2.60
2019-04-01T02:23:17.349Z,2.60
2019-04-01T02:24:17.338Z,2.50
2019-04-01T02:25:17.326Z,2.50
2019-04-01T02:26:17.316Z,2.60
2019-04-01T02:27:17.309Z,2.30
2019-04-01T02:28:17.295Z,2.70
2019-04-01T02:29:17.282Z,2.40
2019-04-01T02:30:17.275Z,2.40
2019-04-01T02:31:17.267Z,2.60
2019-04-01T02:32:17.254Z,2.40
2019-04-01T02:33:17.239Z,2.50
2019-04-01T02:34:17.227Z,2.60
2019-04-01T02:35:17.216Z,2.70
2019-04-01T02:36:17.205Z,2.40
2019-04-01T02:37:17.191Z,2.90
2019-04-01T02:38:17.189Z,2.70
2019-04-01T02:39:17.181Z,2.70
2019-04-01T02:40:21.636Z,2.80
2019-04-01T02:41:17.160Z,2.60
2019-04-01T02:42:17.138Z,2.70
2019-04-01T02:43:17.125Z,2.80
2019-04-01T02:44:17.119Z,2.80
2019-04-01T02:45:17.101Z,2.70
2019-04-01T02:46:17.093Z,2.80
2019-04-01T02:47:17.089Z,2.80
2019-04-01T02:48:17.073Z,2.60
2019-04-01T02:49:17.066Z,3.00
2019-04-01T02:50:17.052Z,3.00
2019-04-01T02:51:17.042Z,2.70
2019-04-01T02:52:17.051Z,3.00
2019-04-01T02:53:17.012Z,2.60
2019-04-01T02:54:17.001Z,2.70
2019-04-01T02:55:16.999Z,2.70
2019-04-01T02:56:16.979Z,2.80
2019-04-01T02:57:16.965Z,2.70
2019-04-01T02:58:16.959Z,2.60
2019-04-01T02:59:16.945Z,2.70
2019-04-01T03:00:16.937Z,2.80
2019-04-01T03:01:16.931Z,2.50
2019-04-01T03:02:16.913Z,2.60
2019-04-01T03:03:16.899Z,2.50
2019-04-01T03:04:16.912Z,2.80
2019-04-01T03:05:16.877Z,2.30
2019-04-01T03:06:16.867Z,2.70
2019-04-01T03:07:16.859Z,2.30
2019-04-01T03:08:16.844Z,2.50
2019-04-01T03:09:16.830Z,2.60
2019-04-01T03:10:16.820Z,2.60
2019-04-01T03:11:16.818Z,2.90
2019-04-01T03:12:16.797Z,2.70
2019-04-01T03:13:16.785Z,2.50
2019-04-01T03:14:16.771Z,2.60
2019-04-01T03:15:16.763Z,2.70
2019-04-01T03:16:16.749Z,2.50
2019-04-01T03:17:16.739Z,2.80
2019-04-01T03:18:16.728Z,2.90
2019-04-01T03:19:16.718Z,2.80
2019-04-01T03:20:16.705Z,2.90
2019-04-01T03:21:16.695Z,2.70
2019-04-01T03:22:16.683Z,2.80
2019-04-01T03:23:16.678Z,3.00
2019-04-01T03:24:16.663Z,3.10
2019-04-01T03:25:16.648Z,3.10
2019-04-01T03:26:16.636Z,3.00
2019-04-01T03:27:17.386Z,3.20
2019-04-01T03:28:16.616Z,2.90
2019-04-01T03:29:16.605Z,3.10
2019-04-01T03:30:16.599Z,2.80
2019-04-01T03:31:16.581Z,3.30
2019-04-01T03:32:16.610Z,3.20
2019-04-01T03:33:16.582Z,3.20
2019-04-01T03:34:16.546Z,3.50
2019-04-01T03:35:16.538Z,3.40
2019-04-01T03:36:16.589Z,3.40
2019-04-01T03:37:16.513Z,3.20
2019-04-01T03:38:16.497Z,3.50
2019-04-01T03:39:16.488Z,3.40
2019-04-01T03:40:16.474Z,3.20
2019-04-01T03:41:16.478Z,3.20
2019-04-01T03:42:16.451Z,3.10
2019-04-01T03:43:16.443Z,3.50
2019-04-01T03:44:16.429Z,3.40
2019-04-01T03:45:16.427Z,3.20
2019-04-01T03:46:16.404Z,3.10
2019-04-01T03:47:16.394Z,3.20
2019-04-01T03:48:16.387Z,3.30
2019-04-01T03:49:16.381Z,3.20
2019-04-01T03:50:16.362Z,3.00
2019-04-01T03:51:16.346Z,3.40
2019-04-01T03:52:16.337Z,3.10
2019-04-01T03:53:16.321Z,3.20
2019-04-01T03:54:16.359Z,3.00
2019-04-01T03:55:16.299Z,3.40
2019-04-01T03:56:16.288Z,3.40
2019-04-01T03:57:16.276Z,3.10
2019-04-01T03:58:16.274Z,3.10
2019-04-01T03:59:16.252Z,3.00
2019-04-01T04:00:16.245Z,2.90
2019-04-01T04:01:16.241Z,3.00
2019-04-01T04:02:16.231Z,3.10
2019-04-01T04:03:16.205Z,2.90
2019-04-01T04:04:16.193Z,3.30
2019-04-01T04:05:16.182Z,3.00
2019-04-01T04:06:16.172Z,3.10
2019-04-01T04:07:16.160Z,2.90
2019-04-01T04:08:16.146Z,3.10
2019-04-01T04:09:16.136Z,3.00
2019-04-01T04:10:16.133Z,3.10
2019-04-01T04:11:16.111Z,2.90
2019-04-01T04:12:16.098Z,3.00
2019-04-01T04:13:16.089Z,3.10
2019-04-01T04:14:16.074Z,3.10
2019-04-01T04:15:16.066Z,3.10
2019-04-01T04:16:16.063Z,2.80
2019-04-01T04:17:16.038Z,3.00
2019-04-01T04:18:16.160Z,2.90
2019-04-01T04:19:16.034Z,2.90
2019-04-01T04:20:16.006Z,2.80
2019-04-01T04:21:15.995Z,2.90
2019-04-01T04:22:15.981Z,3.00
2019-04-01T04:23:15.971Z,2.80
2019-04-01T04:24:15.959Z,3.00
2019-04-01T04:25:15.948Z,3.10
2019-04-01T04:26:15.934Z,2.90
2019-04-01T04:27:15.930Z,2.80
2019-04-01T04:28:15.923Z,2.50
2019-04-01T04:29:15.902Z,2.90
2019-04-01T04:30:15.886Z,2.90
2019-04-01T04:31:15.872Z,2.90
2019-04-01T04:32:15.863Z,2.80
2019-04-01T04:33:16.009Z,2.90
2019-04-01T04:34:15.839Z,3.40
2019-04-01T04:35:15.827Z,3.30
2019-04-01T04:36:15.817Z,3.40
2019-04-01T04:37:15.804Z,3.30
2019-04-01T04:38:15.791Z,3.10
2019-04-01T04:39:15.780Z,2.80
2019-04-01T04:40:15.775Z,3.00
2019-04-01T04:41:15.759Z,3.10
2019-04-01T04:42:15.742Z,2.90
2019-04-01T04:43:15.736Z,2.80
2019-04-01T04:44:15.725Z,3.00
2019-04-01T04:45:15.707Z,2.80
2019-04-01T04:46:15.696Z,2.80
2019-04-01T04:47:15.683Z,2.90
2019-04-01T04:48:15.694Z,2.70
2019-04-01T04:49:15.658Z,2.80
2019-04-01T04:50:15.649Z,2.90
2019-04-01T04:51:15.647Z,2.60
2019-04-01T04:52:15.622Z,2.80
2019-04-01T04:53:15.610Z,2.70
2019-04-01T04:54:15.600Z,2.90
2019-04-01T04:55:15.589Z,2.80
2019-04-01T04:56:15.577Z,2.90
2019-04-01T04:57:15.562Z,3.00
2019-04-01T04:58:15.553Z,3.00
2019-04-01T04:59:15.540Z,3.30
2019-04-01T05:00:15.529Z,2.70
2019-04-01T05:01:15.516Z,3.10
2019-04-01T05:02:15.505Z,3.00
2019-04-01T05:03:15.492Z,3.10
2019-04-01T05:04:15.482Z,3.00
2019-04-01T05:05:15.470Z,3.40
2019-04-01T05:06:15.457Z,3.40
2019-04-01T05:07:15.448Z,3.10
2019-04-01T05:08:15.433Z,3.00
2019-04-01T05:09:15.422Z,3.10
2019-04-01T05:10:15.409Z,2.90
2019-04-01T05:11:15.399Z,2.90
2019-04-01T05:12:15.386Z,3.10
2019-04-01T05:13:15.376Z,3.10
2019-04-01T05:14:15.361Z,3.20
2019-04-01T05:15:15.353Z,3.80
2019-04-01T05:16:15.338Z,3.50
2019-04-01T05:17:15.325Z,3.30
2019-04-01T05:18:15.313Z,3.40
2019-04-01T05:19:15.303Z,3.50
2019-04-01T05:20:16.747Z,3.00
2019-04-01T05:21:15.282Z,3.40
2019-04-01T05:22:15.267Z,3.40
2019-04-01T05:23:15.256Z,3.30
2019-04-01T05:24:15.249Z,3.40
2019-04-01T05:25:15.230Z,4.20
2019-04-01T05:26:15.225Z,4.10
2019-04-01T05:27:15.209Z,4.20
2019-04-01T05:28:15.191Z,3.90
2019-04-01T05:29:15.187Z,3.90
2019-04-01T05:30:15.175Z,4.00
2019-04-01T05:31:15.166Z,3.80
2019-04-01T05:32:15.154Z,3.70
2019-04-01T05:33:15.138Z,3.90
2019-04-01T05:34:15.126Z,4.10
2019-04-01T05:35:15.115Z,4.60
2019-04-01T05:36:15.103Z,4.40
2019-04-01T05:37:15.092Z,4.20
2019-04-01T05:38:15.082Z,4.30
2019-04-01T05:39:15.068Z,3.80
2019-04-01T05:40:15.055Z,4.00
2019-04-01T05:41:15.775Z,3.90
2019-04-01T05:42:15.815Z,3.90
2019-04-01T05:43:15.773Z,4.10
2019-04-01T05:44:15.006Z,3.70
2019-04-01T05:45:15.002Z,4.40
2019-04-01T05:46:14.988Z,5.50
2019-04-01T05:47:14.977Z,6.00
2019-04-01T05:48:14.967Z,6.20
2019-04-01T05:49:14.956Z,5.50
2019-04-01T05:50:14.943Z,5.90
2019-04-01T05:51:14.935Z,6.00
2019-04-01T05:52:14.925Z,6.00
2019-04-01T05:53:14.919Z,6.10
2019-04-01T05:54:14.905Z,6.30
2019-04-01T05:55:14.896Z,6.20
2019-04-01T05:56:14.887Z,6.20
2019-04-01T05:57:14.874Z,5.70
2019-04-01T05:58:14.949Z,5.90
2019-04-01T05:59:14.854Z,5.90
2019-04-01T06:00:14.845Z,5.60
2019-04-01T06:01:14.837Z,5.60
2019-04-01T06:02:14.829Z,5.60
2019-04-01T06:03:14.821Z,5.30
2019-04-01T06:04:14.812Z,6.10
2019-04-01T06:05:14.803Z,5.70
2019-04-01T06:06:14.796Z,5.50
2019-04-01T06:07:14.788Z,5.40
2019-04-01T06:08:14.778Z,5.30
2019-04-01T06:09:14.770Z,5.30
2019-04-01T06:10:14.761Z,5.30
2019-04-01T06:11:14.752Z,5.20
2019-04-01T06:12:14.744Z,5.10
2019-04-01T06:13:14.736Z,5.20
2019-04-01T06:14:14.729Z,5.30
2019-04-01T06:15:14.725Z,5.10
2019-04-01T06:16:14.713Z,5.20
2019-04-01T06:17:14.709Z,5.00
2019-04-01T06:18:14.697Z,5.00
2019-04-01T06:19:14.691Z,4.90
2019-04-01T06:20:14.689Z,4.50
2019-04-01T06:21:14.677Z,5.10
2019-04-01T06:22:14.670Z,5.60
2019-04-01T06:23:14.662Z,4.70
2019-04-01T06:24:14.656Z,4.90
2019-04-01T06:25:14.649Z,4.90
2019-04-01T06:26:14.642Z,4.60
2019-04-01T06:27:15.017Z,4.60
2019-04-01T06:28:14.629Z,5.00
2019-04-01T06:29:14.621Z,5.20
2019-04-01T06:30:14.617Z,4.80
2019-04-01T06:31:14.610Z,4.80
2019-04-01T06:32:14.603Z,4.60
2019-04-01T06:33:14.596Z,4.60
2019-04-01T06:34:14.590Z,4.60
2019-04-01T06:35:14.584Z,4.40
2019-04-01T06:36:14.576Z,4.60
2019-04-01T06:37:14.570Z,4.50
2019-04-01T06:38:14.564Z,4.50
2019-04-01T06:39:14.557Z,4.10
2019-04-01T06:40:14.553Z,4.50
2019-04-01T06:41:14.545Z,4.30
2019-04-01T06:42:14.541Z,4.50
2019-04-01T06:43:14.536Z,4.10
2019-04-01T06:44:14.529Z,4.40
2019-04-01T06:45:14.543Z,4.20
2019-04-01T06:46:14.516Z,3.80
2019-04-01T06:47:14.511Z,4.30
2019-04-01T06:48:14.506Z,3.90
2019-04-01T06:49:14.511Z,3.90
2019-04-01T06:50:14.497Z,4.10
2019-04-01T06:51:14.491Z,4.20
2019-04-01T06:52:14.487Z,4.20
2019-04-01T06:53:14.481Z,3.80
2019-04-01T06:54:14.475Z,3.80
2019-04-01T06:55:14.480Z,4.10
2019-04-01T06:56:14.464Z,3.60
2019-04-01T06:57:14.458Z,3.90
2019-04-01T06:58:14.458Z,3.60
2019-04-01T06:59:14.451Z,3.70
2019-04-01T07:00:14.447Z,3.80
2019-04-01T07:01:14.444Z,3.50
2019-04-01T07:02:14.435Z,3.60
2019-04-01T07:03:14.429Z,3.50
2019-04-01T07:04:14.426Z,3.30
2019-04-01T07:05:14.426Z,3.40
2019-04-01T07:06:14.415Z,3.40
2019-04-01T07:07:19.110Z,3.30
2019-04-01T07:08:14.405Z,3.30
2019-04-01T07:09:14.400Z,3.30
2019-04-01T07:10:14.394Z,3.30
2019-04-01T07:11:14.388Z,3.30
2019-04-01T07:12:14.386Z,3.80
2019-04-01T07:13:14.379Z,3.50
2019-04-01T07:14:14.372Z,3.50
2019-04-01T07:15:14.371Z,3.40
2019-04-01T07:16:16.089Z,3.60
2019-04-01T07:17:14.359Z,3.40
2019-04-01T07:18:14.358Z,3.40
2019-04-01T07:19:14.351Z,4.00
2019-04-01T07:20:14.348Z,3.80
2019-04-01T07:21:14.340Z,3.50
2019-04-01T07:22:14.343Z,3.20
2019-04-01T07:23:14.332Z,3.70
2019-04-01T07:24:14.329Z,3.50
2019-04-01T07:25:14.324Z,3.20
2019-04-01T07:26:14.315Z,3.00
2019-04-01T07:27:14.309Z,3.10
2019-04-01T07:28:14.316Z,3.10
2019-04-01T07:29:14.296Z,3.00
2019-04-01T07:30:14.288Z,2.80
2019-04-01T07:31:14.282Z,3.20
2019-04-01T07:32:14.680Z,3.20
2019-04-01T07:33:14.274Z,2.90
2019-04-01T07:34:14.265Z,2.90
2019-04-01T07:35:14.256Z,2.90
2019-04-01T07:36:14.249Z,3.00
2019-04-01T07:37:14.248Z,3.10
2019-04-01T07:38:14.238Z,3.00
2019-04-01T07:39:14.229Z,2.70
2019-04-01T07:40:14.273Z,2.60
2019-04-01T07:41:14.216Z,2.80
2019-04-01T07:42:14.207Z,2.50
2019-04-01T07:43:15.215Z,2.50
2019-04-01T07:44:14.194Z,2.80
2019-04-01T07:45:14.187Z,2.60
2019-04-01T07:46:14.179Z,2.50
2019-04-01T07:47:14.167Z,2.40
2019-04-01T07:48:14.162Z,2.60
2019-04-01T07:49:14.155Z,2.30
2019-04-01T07:50:14.144Z,2.50
2019-04-01T07:51:14.135Z,2.50
2019-04-01T07:52:14.130Z,2.30
2019-04-01T07:53:14.121Z,2.40
2019-04-01T07:54:14.112Z,2.60
2019-04-01T07:55:14.104Z,2.30
2019-04-01T07:56:14.096Z,2.30
2019-04-01T07:57:14.093Z,2.10
2019-04-01T07:58:14.079Z,2.40
2019-04-01T07:59:14.071Z,2.40
2019-04-01T08:00:14.065Z,2.30
2019-04-01T08:01:14.053Z,2.20
2019-04-01T08:02:14.047Z,2.10
2019-04-01T08:03:14.038Z,2.40
2019-04-01T08:04:14.031Z,2.10
2019-04-01T08:05:14.022Z,2.20
2019-04-01T08:06:14.015Z,2.20
2019-04-01T08:07:14.016Z,2.00
2019-04-01T08:08:13.999Z,2.20
2019-04-01T08:09:14.000Z,2.20
2019-04-01T08:10:13.978Z,2.10
2019-04-01T08:11:13.972Z,2.00
2019-04-01T08:12:13.967Z,1.80
2019-04-01T08:13:13.958Z,2.10
2019-04-01T08:14:13.954Z,1.90
2019-04-01T08:15:13.938Z,1.70
2019-04-01T08:16:13.931Z,1.80
2019-04-01T08:17:13.922Z,1.80
2019-04-01T08:18:13.912Z,1.80
2019-04-01T08:19:13.904Z,1.70
2019-04-01T08:20:13.897Z,1.70
2019-04-01T08:21:13.900Z,1.60
2019-04-01T08:22:13.897Z,2.00
2019-04-01T08:23:13.872Z,1.80
2019-04-01T08:24:13.860Z,1.70
2019-04-01T08:25:13.851Z,1.80
2019-04-01T08:26:13.843Z,1.90
2019-04-01T08:27:13.840Z,1.80
2019-04-01T08:28:13.826Z,1.70
2019-04-01T08:29:13.817Z,1.80
2019-04-01T08:30:13.813Z,1.90
2019-04-01T08:31:13.801Z,1.90
2019-04-01T08:32:14.181Z,1.70
2019-04-01T08:33:13.782Z,1.60
2019-04-01T08:34:13.774Z,2.00
2019-04-01T08:35:13.765Z,2.00
2019-04-01T08:36:13.761Z,1.70
2019-04-01T08:37:13.746Z,1.80
2019-04-01T08:38:13.755Z,2.00
2019-04-01T08:39:13.737Z,1.70
2019-04-01T08:40:13.721Z,1.70
2019-04-01T08:41:13.719Z,1.80
2019-04-01T08:42:13.706Z,1.90
2019-04-01T08:43:13.699Z,2.10
2019-04-01T08:44:13.686Z,1.70
2019-04-01T08:45:13.678Z,1.30
2019-04-01T08:46:13.671Z,1.60
2019-04-01T08:47:13.664Z,1.50
2019-04-01T08:48:13.658Z,1.40
2019-04-01T08:49:13.645Z,1.60
2019-04-01T08:50:13.638Z,1.60
2019-04-01T08:51:13.626Z,1.60
2019-04-01T08:52:13.625Z,1.40
2019-04-01T08:53:13.611Z,1.50
2019-04-01T08:54:13.604Z,1.70
2019-04-01T08:55:13.597Z,1.70
2019-04-01T08:56:13.585Z,1.50
2019-04-01T08:57:13.584Z,1.50
2019-04-01T08:58:13.683Z,1.70
2019-04-01T08:59:13.561Z,1.90
2019-04-01T09:00:13.553Z,1.40
2019-04-01T09:01:13.549Z,1.60
2019-04-01T09:02:18.103Z,1.60
2019-04-01T09:03:13.525Z,1.60
2019-04-01T09:04:13.516Z,1.40
2019-04-01T09:05:13.509Z,1.60
2019-04-01T09:06:13.616Z,1.50
2019-04-01T09:07:13.492Z,1.50
2019-04-01T09:08:13.483Z,1.60
2019-04-01T09:09:13.475Z,1.70
2019-04-01T09:10:13.464Z,1.70
2019-04-01T09:11:13.458Z,1.70
2019-04-01T09:12:13.453Z,1.80
2019-04-01T09:13:13.439Z,1.70
2019-04-01T09:14:13.431Z,1.70
2019-04-01T09:15:13.427Z,1.60
2019-04-01T09:16:13.416Z,1.60
2019-04-01T09:17:13.407Z,1.60
2019-04-01T09:18:13.397Z,1.50
2019-04-01T09:19:13.404Z,1.80
2019-04-01T09:20:13.384Z,1.40
2019-04-01T09:21:13.372Z,1.70
2019-04-01T09:22:13.367Z,1.80
2019-04-01T09:23:13.362Z,1.60
2019-04-01T09:24:13.354Z,1.60
2019-04-01T09:25:13.339Z,1.50
2019-04-01T09:26:13.331Z,1.60
2019-04-01T09:27:13.323Z,1.80
2019-04-01T09:28:13.314Z,1.80
2019-04-01T09:29:13.306Z,2.00
2019-04-01T09:30:13.298Z,1.60
2019-04-01T09:31:13.423Z,1.80
2019-04-01T09:32:13.285Z,1.70
2019-04-01T09:33:13.273Z,1.60
2019-04-01T09:34:13.265Z,1.70
2019-04-01T09:35:13.260Z,1.50
2019-04-01T09:36:13.250Z,1.90
2019-04-01T09:37:13.243Z,1.60
2019-04-01T09:38:13.234Z,1.60
2019-04-01T09:39:13.225Z,1.70
2019-04-01T09:40:13.216Z,1.50
2019-04-01T09:41:13.702Z,1.60
2019-04-01T09:42:13.202Z,1.60
2019-04-01T09:43:14.223Z,1.70
2019-04-01T09:44:13.187Z,1.70
2019-04-01T09:45:13.172Z,1.40
2019-04-01T09:46:13.170Z,2.00
2019-04-01T09:47:13.162Z,1.40
2019-04-01T09:48:13.156Z,1.70
2019-04-01T09:49:13.145Z,1.70
2019-04-01T09:50:13.140Z,1.40
2019-04-01T09:51:13.130Z,1.50
2019-04-01T09:52:13.122Z,1.50
2019-04-01T09:53:13.115Z,1.70
2019-04-01T09:54:13.105Z,1.60
2019-04-01T09:55:13.105Z,1.70
2019-04-01T09:56:13.094Z,1.70
2019-04-01T09:57:17.851Z,1.60
2019-04-01T09:58:13.075Z,1.60
2019-04-01T09:59:13.174Z,1.60
2019-04-01T10:00:13.063Z,1.60
2019-04-01T10:01:13.056Z,1.60
2019-04-01T10:02:13.049Z,1.40
2019-04-01T10:03:13.036Z,1.30
2019-04-01T10:04:13.031Z,1.50
2019-04-01T10:05:13.025Z,1.50
2019-04-01T10:06:13.016Z,1.80
2019-04-01T10:07:13.007Z,1.50
2019-04-01T10:08:12.998Z,1.40
2019-04-01T10:09:12.994Z,1.60
2019-04-01T10:10:12.987Z,1.80
2019-04-01T10:11:13.185Z,1.50
2019-04-01T10:12:12.968Z,1.50
2019-04-01T10:13:12.961Z,1.90
2019-04-01T10:14:12.954Z,1.40
2019-04-01T10:15:12.947Z,1.60
2019-04-01T10:16:12.937Z,1.50
2019-04-01T10:17:12.927Z,1.50
2019-04-01T10:18:12.921Z,1.60
2019-04-01T10:19:12.915Z,1.70
2019-04-01T10:20:12.906Z,1.80
2019-04-01T10:21:12.897Z,1.90
2019-04-01T10:22:12.890Z,1.50
2019-04-01T10:23:12.883Z,1.80
2019-04-01T10:24:12.877Z,1.60
2019-04-01T10:25:12.866Z,1.50
2019-04-01T10:26:12.856Z,1.60
2019-04-01T10:27:12.855Z,1.60
2019-04-01T10:28:12.847Z,1.60
2019-04-01T10:29:12.835Z,1.60
2019-04-01T10:30:12.850Z,1.60
2019-04-01T10:31:12.837Z,1.60
2019-04-01T10:32:12.815Z,1.50
2019-04-01T10:33:12.805Z,1.60
2019-04-01T10:34:12.819Z,1.20
2019-04-01T10:35:12.792Z,1.50
2019-04-01T10:36:12.784Z,1.70
2019-04-01T10:37:12.776Z,1.60
2019-04-01T10:38:12.767Z,1.50
2019-04-01T10:39:12.761Z,2.00
2019-04-01T10:40:12.753Z,1.60
2019-04-01T10:41:12.744Z,1.30
2019-04-01T10:42:12.737Z,1.90
2019-04-01T10:43:12.730Z,1.50
2019-04-01T10:44:12.725Z,1.50
2019-04-01T10:45:12.716Z,1.70
2019-04-01T10:46:12.709Z,1.70
2019-04-01T10:47:12.722Z,1.60
2019-04-01T10:48:12.761Z,1.80
2019-04-01T10:49:12.700Z,1.80
2019-04-01T10:50:12.808Z,1.80
2019-04-01T10:51:12.683Z,1.70
2019-04-01T10:52:12.695Z,1.70
2019-04-01T10:53:12.656Z,1.60
2019-04-01T10:54:12.669Z,1.60
2019-04-01T10:55:12.666Z,1.60
2019-04-01T10:56:12.679Z,1.60
2019-04-01T10:57:12.697Z,1.60
2019-04-01T10:58:12.640Z,1.60
2019-04-01T10:59:12.643Z,1.70
2019-04-01T11:00:12.698Z,1.70
2019-04-01T11:01:12.611Z,1.70
2019-04-01T11:02:12.617Z,1.80
2019-04-01T11:03:12.678Z,1.80
2019-04-01T11:04:12.639Z,1.70
2019-04-01T11:05:12.630Z,1.70
2019-04-01T11:06:12.589Z,1.70
2019-04-01T11:07:12.606Z,1.60
2019-04-01T11:08:12.625Z,1.60
2019-04-01T11:09:12.630Z,1.40
2019-04-01T11:10:12.529Z,1.60
2019-04-01T11:11:12.519Z,1.80
2019-04-01T11:12:12.517Z,1.80
2019-04-01T11:13:12.506Z,1.60
2019-04-01T11:14:12.499Z,1.90
2019-04-01T11:15:15.624Z,1.80
2019-04-01T11:16:12.484Z,1.60
2019-04-01T11:17:12.479Z,1.80
2019-04-01T11:18:12.471Z,1.80
2019-04-01T11:19:12.464Z,1.70
2019-04-01T11:20:12.457Z,1.90
2019-04-01T11:21:12.445Z,1.80
2019-04-01T11:22:12.441Z,1.80
2019-04-01T11:23:12.433Z,1.70
2019-04-01T11:24:12.429Z,2.10
2019-04-01T11:25:12.418Z,1.80
2019-04-01T11:26:12.410Z,1.90
2019-04-01T11:27:12.408Z,1.80
2019-04-01T11:28:12.408Z,1.70
2019-04-01T11:29:12.388Z,1.90
2019-04-01T11:30:13.825Z,1.80
2019-04-01T11:31:12.413Z,1.70
2019-04-01T11:32:13.575Z,1.70
2019-04-01T11:33:12.407Z,1.90
2019-04-01T11:34:12.354Z,1.80
2019-04-01T11:35:12.382Z,1.90
2019-04-01T11:36:12.360Z,1.70
2019-04-01T11:37:12.330Z,1.80
2019-04-01T11:38:12.333Z,2.10
2019-04-01T11:39:12.336Z,2.00
2019-04-01T11:40:12.689Z,1.90
2019-04-01T11:41:12.353Z,1.80
2019-04-01T11:42:12.337Z,1.80
2019-04-01T11:43:12.326Z,1.90
2019-04-01T11:44:12.336Z,1.90
2019-04-01T11:45:12.309Z,1.90
2019-04-01T11:46:12.684Z,1.90
2019-04-01T11:47:12.301Z,2.00
2019-04-01T11:48:12.286Z,1.70
2019-04-01T11:49:12.268Z,2.10
2019-04-01T11:50:12.258Z,2.10
2019-04-01T11:51:12.266Z,2.10
2019-04-01T11:52:15.377Z,1.80
2019-04-01T11:53:12.231Z,1.80
2019-04-01T11:54:12.209Z,1.70
2019-04-01T11:55:12.202Z,1.90
2019-04-01T11:56:12.197Z,2.00
2019-04-01T11:57:12.189Z,2.10
2019-04-01T11:58:12.181Z,2.20
2019-04-01T11:59:12.174Z,2.10
2019-04-01T12:00:13.245Z,2.00
2019-04-01T12:01:12.159Z,2.00
2019-04-01T12:02:12.159Z,2.10
2019-04-01T12:03:12.146Z,2.10
2019-04-01T12:04:12.138Z,2.00
2019-04-01T12:05:12.130Z,1.90
2019-04-01T12:06:12.127Z,1.90
2019-04-01T12:07:12.118Z,2.10
2019-04-01T12:08:12.109Z,2.00
2019-04-01T12:09:12.102Z,1.80
2019-04-01T12:10:12.096Z,2.10
2019-04-01T12:11:12.088Z,2.10
2019-04-01T12:12:23.579Z,2.10
2019-04-01T12:13:12.072Z,2.10
2019-04-01T12:14:12.071Z,2.00
2019-04-01T12:15:12.790Z,1.90
2019-04-01T12:16:12.054Z,2.00
2019-04-01T12:17:12.044Z,1.90
2019-04-01T12:18:12.040Z,1.90
2019-04-01T12:19:12.037Z,2.00
2019-04-01T12:20:12.037Z,1.90
2019-04-01T12:21:12.020Z,2.30
2019-04-01T12:22:12.015Z,1.90
2019-04-01T12:23:12.007Z,2.00
2019-04-01T12:24:12.001Z,2.00
2019-04-01T12:25:11.991Z,2.00
2019-04-01T12:26:15.259Z,1.80
2019-04-01T12:27:11.978Z,1.60
2019-04-01T12:28:11.972Z,1.80
2019-04-01T12:29:12.549Z,1.70
2019-04-01T12:30:11.958Z,1.80
2019-04-01T12:31:12.967Z,1.70
2019-04-01T12:32:11.951Z,1.70
2019-04-01T12:33:11.939Z,1.70
2019-04-01T12:34:11.932Z,1.60
2019-04-01T12:35:11.923Z,1.50
2019-04-01T12:36:12.133Z,1.40
2019-04-01T12:37:11.913Z,1.40
2019-04-01T12:38:11.902Z,1.40
2019-04-01T12:39:11.983Z,1.20
2019-04-01T12:40:11.892Z,1.40
2019-04-01T12:41:11.884Z,1.60
2019-04-01T12:42:11.873Z,1.40
2019-04-01T12:43:11.870Z,1.60
2019-04-01T12:44:11.860Z,1.50
2019-04-01T12:45:11.858Z,1.50
2019-04-01T12:46:11.848Z,1.60
2019-04-01T12:47:11.840Z,1.40
2019-04-01T12:48:11.834Z,1.70
2019-04-01T12:49:11.829Z,1.30
2019-04-01T12:50:11.819Z,1.50
2019-04-01T12:51:11.811Z,1.40
2019-04-01T12:52:11.804Z,1.30
2019-04-01T12:53:11.797Z,1.60
2019-04-01T12:54:11.791Z,1.60
2019-04-01T12:55:11.791Z,1.70
2019-04-01T12:56:11.778Z,1.50
2019-04-01T12:57:11.770Z,1.50
2019-04-01T12:58:11.765Z,1.60
2019-04-01T12:59:11.762Z,1.50
2019-04-01T13:00:11.757Z,1.50
2019-04-01T13:01:11.743Z,1.40
2019-04-01T13:02:11.737Z,1.50
2019-04-01T13:03:11.734Z,1.40
2019-04-01T13:04:11.724Z,1.40
2019-04-01T13:05:11.717Z,1.60
2019-04-01T13:06:11.711Z,1.60
2019-04-01T13:07:11.705Z,1.60
2019-04-01T13:08:11.696Z,1.60
2019-04-01T13:09:11.692Z,1.40
2019-04-01T13:10:11.688Z,1.40
2019-04-01T13:11:11.676Z,1.50
2019-04-01T13:12:11.668Z,1.70
2019-04-01T13:13:13.069Z,1.60
2019-04-01T13:14:11.705Z,1.60
2019-04-01T13:15:12.747Z,1.40
2019-04-01T13:16:11.644Z,1.60
2019-04-01T13:17:11.667Z,1.50
2019-04-01T13:18:11.627Z,1.50